Time;durP1;ratioP1;P1;durP2;ratioP2;P2;SDS_P1;SDS_P2;PMS_P1;PMS_P2;Temp;Humidity;BMP_temperature;BMP_pressure;BME280_temperature;BME280_humidity;BME280_pressure;Samples;Min_cycle;Max_cycle;Signal;HPM_P1;HPM_P2
2022/01/02 00:00:25;;;;;;;4.32;4.03;;;;;;;10.04;100.00;101861.31;5227712;28;20025;-63
2022/01/02 00:03:04;;;;;;;7.78;4.78;;;;;;;10.09;100.00;101871.44;5227741;28;20025;-64
2022/01/02 00:05:38;;;;;;;8.95;5.95;;;;;;;10.08;100.00;101861.69;5227273;28;20025;-64
2022/01/02 00:08:10;;;;;;;4.35;3.95;;;;;;;10.12;100.00;101860.16;5227340;28;20033;-64
2022/01/02 00:10:58;;;;;;;5.85;5.03;;;;;;;10.04;100.00;101850.53;5227311;28;20036;-63
2022/01/02 00:13:33;;;;;;;7.53;6.72;;;;;;;10.13;100.00;101859.13;5226814;28;20067;-64
2022/01/02 00:16:06;;;;;;;6.50;5.78;;;;;;;10.14;100.00;101866.97;5227119;28;20029;-64
2022/01/02 00:18:40;;;;;;;8.52;6.20;;;;;;;10.15;100.00;101868.63;5227147;28;20471;-63
2022/01/02 00:21:11;;;;;;;7.25;4.90;;;;;;;10.15;100.00;101875.91;5227299;28;20024;-63
2022/01/02 00:23:58;;;;;;;6.63;4.85;;;;;;;10.14;100.00;101866.16;5227478;28;20554;-64
2022/01/02 00:26:41;;;;;;;5.63;5.13;;;;;;;10.17;100.00;101854.91;5231541;28;20032;-63
2022/01/02 00:29:12;;;;;;;6.53;5.95;;;;;;;10.15;100.00;101843.53;5232561;28;20024;-61
2022/01/02 00:31:43;;;;;;;6.20;5.65;;;;;;;10.08;100.00;101834.72;5227652;28;20516;-63
2022/01/02 00:34:15;;;;;;;6.03;5.57;;;;;;;10.11;100.00;101837.75;5236494;28;20055;-63
2022/01/02 00:36:45;;;;;;;6.10;5.65;;;;;;;10.07;100.00;101844.69;5237326;28;20362;-63
2022/01/02 00:39:17;;;;;;;7.10;6.45;;;;;;;10.09;100.00;101841.75;5238286;28;20078;-63
2022/01/02 00:41:54;;;;;;;5.60;5.13;;;;;;;10.04;100.00;101830.81;5234270;28;20029;-63
2022/01/02 00:44:33;;;;;;;6.10;5.68;;;;;;;10.06;100.00;101829.53;5231609;28;20559;-63
2022/01/02 00:47:17;;;;;;;5.95;5.53;;;;;;;10.04;100.00;101828.13;5232204;28;20029;-63
2022/01/02 00:50:12;;;;;;;5.70;5.28;;;;;;;9.93;100.00;101802.72;5234178;28;20032;-63
2022/01/02 00:52:46;;;;;;;5.90;5.50;;;;;;;9.99;100.00;101812.63;5233260;28;20021;-61
2022/01/02 00:55:22;;;;;;;5.10;4.80;;;;;;;9.95;100.00;101808.72;5231900;28;20021;-64
2022/01/02 00:58:07;;;;;;;5.25;4.95;;;;;;;9.90;100.00;101794.25;5231838;28;20040;-64
2022/01/02 01:00:47;;;;;;;15.65;4.63;;;;;;;9.90;100.00;101795.09;5234677;28;20029;-63
2022/01/02 01:03:23;;;;;;;;;;;;;;;9.90;100.00;101803.19;5237650;28;20040;-63
2022/01/02 01:05:54;;;;;;;6.38;5.88;;;;;;;9.83;100.00;101788.94;5238458;28;19912;-63
2022/01/02 01:08:24;;;;;;;5.35;4.85;;;;;;;9.73;100.00;101775.19;5236790;28;20439;-58
2022/01/02 01:10:56;;;;;;;5.13;4.75;;;;;;;9.82;100.00;101796.22;5226133;28;20029;-59
2022/01/02 01:13:26;;;;;;;5.03;4.60;;;;;;;9.81;100.00;101800.00;5226039;28;20025;-61
2022/01/02 01:15:57;;;;;;;6.45;6.07;;;;;;;9.70;100.00;101778.34;5225782;28;20033;-61
2022/01/02 01:18:27;;;;;;;5.72;5.22;;;;;;;9.75;100.00;101781.19;5226157;28;20485;-62
2022/01/02 01:20:58;;;;;;;6.88;6.38;;;;;;;9.76;100.00;101772.06;5226079;28;20082;-60
2022/01/02 01:23:28;;;;;;;11.77;6.05;;;;;;;9.75;100.00;101773.09;5225158;28;20025;-63
2022/01/02 01:26:05;;;;;;;7.68;5.18;;;;;;;9.68;100.00;101770.50;5226109;28;20032;-61
2022/01/02 01:28:37;;;;;;;5.35;4.95;;;;;;;9.72;100.00;101777.06;5225585;28;20025;-62
2022/01/02 01:31:07;;;;;;;6.40;4.22;;;;;;;9.57;100.00;101748.84;5225165;28;20025;-62
2022/01/02 01:33:38;;;;;;;5.63;5.20;;;;;;;9.72;100.00;101782.47;5225004;28;20035;-60
2022/01/02 01:36:08;;;;;;;5.75;5.30;;;;;;;9.68;100.00;101775.06;5226436;28;20366;-62
2022/01/02 01:38:38;;;;;;;6.35;5.78;;;;;;;9.69;100.00;101769.44;5225538;28;20417;-60
2022/01/02 01:41:28;;;;;;;7.65;6.22;;;;;;;9.69;100.00;101765.91;5225185;28;20035;-61
2022/01/02 01:46:55;;;;;;;4.82;4.55;;;;;;;9.70;100.00;101754.06;5203165;28;20044;-60
2022/01/02 01:49:29;;;;;;;5.63;5.28;;;;;;;9.72;100.00;101743.88;5225385;28;20033;-63
2022/01/02 01:51:59;;;;;;;5.53;4.97;;;;;;;9.68;100.00;101737.31;5225248;28;20374;-61
2022/01/02 01:54:31;;;;;;;7.20;6.07;;;;;;;9.73;100.00;101743.66;5224700;28;20028;-62
2022/01/02 01:57:02;;;;;;;6.43;4.93;;;;;;;9.78;100.00;101742.97;5225132;28;20500;-64
2022/01/02 01:59:33;;;;;;;5.68;5.15;;;;;;;9.80;100.00;101744.41;5225048;28;20060;-63
2022/01/02 02:02:03;;;;;;;7.03;4.90;;;;;;;9.83;100.00;101743.09;5224989;28;20491;-62
2022/01/02 02:04:34;;;;;;;5.78;5.28;;;;;;;9.87;100.00;101736.19;5224661;28;20031;-61
2022/01/02 02:07:04;;;;;;;6.22;4.97;;;;;;;9.90;100.00;101724.94;5224902;28;20283;-60
2022/01/02 02:09:46;;;;;;;8.45;5.57;;;;;;;9.95;100.00;101727.78;5224892;28;20137;-60
2022/01/02 02:12:17;;;;;;;9.98;6.53;;;;;;;9.98;100.00;101711.13;5225027;28;20111;-67
2022/01/02 02:14:47;;;;;;;13.48;6.60;;;;;;;9.96;100.00;101669.25;5224416;28;20598;-63
2022/01/02 02:17:18;;;;;;;7.82;6.95;;;;;;;10.01;100.00;101686.38;5224738;28;20114;-61
2022/01/02 02:19:55;;;;;;;9.70;5.35;;;;;;;10.00;100.00;101692.00;5224728;28;20024;-62
2022/01/02 02:22:26;;;;;;;8.63;4.95;;;;;;;10.07;100.00;101708.94;5224880;28;20021;-59
2022/01/02 02:24:56;;;;;;;5.25;4.88;;;;;;;10.07;100.00;101703.53;5224472;28;20439;-61
2022/01/02 02:27:27;;;;;;;6.70;5.20;;;;;;;10.08;100.00;101703.31;5224560;28;20032;-62
2022/01/02 02:29:57;;;;;;;8.57;5.22;;;;;;;10.11;100.00;101697.41;5224542;28;20097;-60
2022/01/02 02:32:28;;;;;;;9.68;5.53;;;;;;;10.06;100.00;101697.31;5224670;28;20127;-60
2022/01/02 02:34:58;;;;;;;6.82;5.63;;;;;;;10.06;100.00;101694.59;5225344;28;20067;-60
2022/01/02 02:37:30;;;;;;;5.53;5.03;;;;;;;10.14;100.00;101709.63;5230382;28;20021;-62
2022/01/02 02:40:01;;;;;;;5.43;5.03;;;;;;;10.13;100.00;101700.69;5228293;28;20021;-64
2022/01/02 02:42:40;;;;;;;7.65;4.55;;;;;;;10.14;100.00;101704.22;5228601;28;20093;-60
2022/01/02 02:51:16;;;;;;;7.20;5.97;;;;;;;10.12;100.00;101690.13;5229915;28;20033;-60
2022/01/02 02:53:49;;;;;;;6.47;5.70;;;;;;;10.10;100.00;101676.91;5228205;28;20059;-60
2022/01/02 02:56:25;;;;;;;7.32;6.40;;;;;;;10.10;100.00;101685.00;5228504;28;20446;-60
2022/01/02 02:58:57;;;;;;;4.72;4.40;;;;;;;10.11;100.00;101681.22;5228534;28;20029;-59
2022/01/02 03:01:28;;;;;;;6.07;5.60;;;;;;;10.13;100.00;101686.38;5228288;28;20032;-60
2022/01/02 03:03:59;;;;;;;10.00;6.28;;;;;;;10.00;100.00;101671.25;5227938;28;20031;-60
2022/01/02 03:06:30;;;;;;;5.40;4.97;;;;;;;10.07;100.00;101682.75;5228234;28;20025;-60
2022/01/02 03:09:07;;;;;;;9.23;4.97;;;;;;;10.09;100.00;101694.16;5227945;28;20033;-60
2022/01/02 03:11:41;;;;;;;7.93;5.50;;;;;;;10.10;100.00;101671.50;5227974;28;20504;-60
2022/01/02 03:14:12;;;;;;;14.63;6.28;;;;;;;10.06;100.00;101669.50;5227704;28;20048;-62
2022/01/02 03:16:43;;;;;;;13.00;4.80;;;;;;;10.06;100.00;101661.41;5227951;28;20112;-60
2022/01/02 03:19:13;;;;;;;11.43;4.90;;;;;;;10.15;100.00;101663.50;5229137;28;20113;-63
2022/01/02 03:21:44;;;;;;;5.25;4.88;;;;;;;10.16;100.00;101659.75;5227775;28;20040;-60
2022/01/02 03:24:14;;;;;;;5.63;5.20;;;;;;;10.18;100.00;101656.00;5227652;28;20721;-60
2022/01/02 03:26:45;;;;;;;9.75;5.63;;;;;;;10.18;100.00;101650.59;5227946;28;20116;-59
2022/01/02 03:29:15;;;;;;;9.60;4.78;;;;;;;10.19;100.00;101642.31;5228139;28;20032;-59
2022/01/02 03:31:46;;;;;;;4.53;4.13;;;;;;;10.16;100.00;101635.47;5227598;28;20029;-63
2022/01/02 03:34:16;;;;;;;4.25;3.90;;;;;;;10.19;100.00;101638.75;5227541;28;20021;-59
2022/01/02 03:36:47;;;;;;;4.65;4.35;;;;;;;10.16;100.00;101626.53;5227701;28;20051;-59
2022/01/02 03:39:17;;;;;;;8.15;5.22;;;;;;;10.12;100.00;101619.97;5227700;28;20029;-60
2022/01/02 03:41:47;;;;;;;4.82;4.40;;;;;;;10.15;100.00;101625.72;5227265;28;20033;-59
2022/01/02 03:44:18;;;;;;;5.20;4.82;;;;;;;10.18;100.00;101629.00;5226841;28;20052;-60
2022/01/02 03:46:48;;;;;;;7.75;6.40;;;;;;;10.18;100.00;101637.09;5226779;28;20068;-62
2022/01/02 03:49:19;;;;;;;4.50;4.18;;;;;;;10.18;100.00;101613.63;5227151;28;20032;-62
2022/01/02 03:51:49;;;;;;;7.10;4.88;;;;;;;10.20;100.00;101613.44;5227126;28;20021;-62
2022/01/02 03:54:20;;;;;;;4.95;3.92;;;;;;;10.20;100.00;101603.47;5227011;28;20070;-59
2022/01/02 03:56:53;;;;;;;6.22;4.18;;;;;;;10.21;100.00;101598.88;5227242;28;20029;-62
2022/01/02 03:59:24;;;;;;;4.18;3.88;;;;;;;10.22;100.00;101603.22;5227287;28;20025;-62
2022/01/02 04:01:54;;;;;;;5.57;5.18;;;;;;;10.25;100.00;101600.06;5226972;28;20489;-60
2022/01/02 04:04:25;;;;;;;4.57;4.28;;;;;;;10.25;100.00;101603.56;5226888;28;20021;-60
2022/01/02 04:06:56;;;;;;;5.00;3.80;;;;;;;10.26;100.00;101604.41;5228322;28;20051;-63
2022/01/02 04:09:26;;;;;;;7.88;5.25;;;;;;;10.27;100.00;101600.66;5226796;28;20041;-62
2022/01/02 04:11:57;;;;;;;8.15;4.05;;;;;;;10.25;100.00;101606.28;5226805;28;20468;-62
2022/01/02 04:14:27;;;;;;;9.38;4.82;;;;;;;10.22;100.00;101593.25;5226618;28;20094;-62
2022/01/02 04:16:57;;;;;;;5.93;5.32;;;;;;;10.19;100.00;101598.25;5226859;28;20039;-60
2022/01/02 04:19:28;;;;;;;4.93;4.40;;;;;;;10.19;100.00;101598.25;5226753;28;20040;-60
2022/01/02 04:21:58;;;;;;;3.63;3.42;;;;;;;10.16;100.00;101584.19;5226388;28;20044;-60
2022/01/02 04:24:29;;;;;;;4.43;4.22;;;;;;;10.15;100.00;101570.91;5226546;28;20020;-63
2022/01/02 04:26:59;;;;;;;7.07;5.15;;;;;;;10.12;100.00;101572.22;5226750;28;20025;-61
2022/01/02 04:29:30;;;;;;;5.25;4.85;;;;;;;10.12;100.00;101561.41;5226901;28;20028;-59
2022/01/02 04:32:00;;;;;;;5.53;4.95;;;;;;;10.11;100.00;101551.66;5226409;28;20115;-60
2022/01/02 04:34:31;;;;;;;6.95;5.47;;;;;;;10.10;100.00;101546.53;5226104;28;20409;-60
2022/01/02 04:37:01;;;;;;;5.13;4.65;;;;;;;10.10;100.00;101544.66;5226628;28;20027;-62
2022/01/02 04:39:33;;;;;;;6.38;5.75;;;;;;;10.06;100.00;101535.41;5226050;28;20033;-62
2022/01/02 04:42:04;;;;;;;4.70;4.28;;;;;;;9.98;100.00;101516.03;5226216;28;20029;-63
2022/01/02 04:44:34;;;;;;;7.00;5.45;;;;;;;9.95;100.00;101516.50;5227161;28;20056;-62
2022/01/02 04:47:05;;;;;;;3.78;3.63;;;;;;;9.98;100.00;101530.34;5226240;28;20054;-60
2022/01/02 04:49:36;;;;;;;4.18;3.97;;;;;;;9.91;100.00;101523.41;5226277;28;20032;-60
2022/01/02 04:52:06;;;;;;;4.25;3.92;;;;;;;9.92;100.00;101527.75;5226241;28;20481;-63
2022/01/02 04:54:36;;;;;;;5.25;4.78;;;;;;;9.94;100.00;101531.88;5225756;28;20086;-63
2022/01/02 04:57:07;;;;;;;6.72;4.47;;;;;;;9.95;100.00;101513.81;5226238;28;20071;-62
2022/01/02 04:59:38;;;;;;;8.32;5.45;;;;;;;9.95;100.00;101503.84;5225067;28;20025;-61
2022/01/02 05:02:08;;;;;;;5.82;5.38;;;;;;;9.94;100.00;101486.00;5225916;28;20028;-60
2022/01/02 05:04:39;;;;;;;6.72;4.32;;;;;;;9.94;100.00;101477.91;5225712;28;20033;-62
2022/01/02 05:07:11;;;;;;;4.05;3.67;;;;;;;9.95;100.00;101471.47;5225966;28;20512;-61
2022/01/02 05:09:42;;;;;;;4.38;4.07;;;;;;;9.96;100.00;101474.97;5225713;28;20585;-60
2022/01/02 05:12:13;;;;;;;5.78;4.35;;;;;;;9.96;100.00;101467.69;5225706;28;20104;-62
2022/01/02 05:14:43;;;;;;;8.30;4.03;;;;;;;9.94;100.00;101461.72;5225612;28;20029;-60
2022/01/02 05:17:13;;;;;;;4.72;4.53;;;;;;;9.99;100.00;101464.53;5225732;28;20029;-63
2022/01/02 05:19:44;;;;;;;4.75;3.78;;;;;;;10.01;100.00;101475.91;5225851;28;20081;-62
2022/01/02 05:22:14;;;;;;;5.80;5.30;;;;;;;10.02;100.00;101464.06;5225587;28;20053;-60
2022/01/02 05:24:45;;;;;;;10.38;5.25;;;;;;;9.82;100.00;101425.84;5225395;28;20033;-60
2022/01/02 05:27:15;;;;;;;5.93;4.05;;;;;;;10.05;100.00;101457.38;5225279;28;20029;-59
2022/01/02 05:29:46;;;;;;;5.05;4.55;;;;;;;9.94;100.00;101442.84;5225663;28;20025;-59
2022/01/02 05:32:16;;;;;;;3.22;3.03;;;;;;;10.04;100.00;101451.16;5225447;28;20056;-62
2022/01/02 05:34:47;;;;;;;6.53;3.92;;;;;;;10.00;100.00;101441.88;5225338;28;20040;-61
2022/01/02 05:37:17;;;;;;;5.43;4.93;;;;;;;9.95;100.00;101425.59;5225602;28;20033;-62
2022/01/02 05:39:48;;;;;;;5.50;4.60;;;;;;;10.06;100.00;101426.63;5225244;28;20067;-59
2022/01/02 05:42:18;;;;;;;3.70;3.30;;;;;;;10.02;100.00;101414.66;5225204;28;20013;-59
2022/01/02 05:44:48;;;;;;;4.88;4.57;;;;;;;10.01;100.00;101392.25;5225050;28;20086;-59
2022/01/02 05:47:19;;;;;;;5.15;4.70;;;;;;;10.04;100.00;101396.38;5225414;28;20389;-63
2022/01/02 05:49:49;;;;;;;7.05;4.57;;;;;;;10.01;100.00;101381.47;5224949;28;20028;-62
2022/01/02 05:52:20;;;;;;;4.20;3.72;;;;;;;9.99;100.00;101372.78;5225127;28;20112;-60
2022/01/02 05:54:50;;;;;;;7.93;4.75;;;;;;;9.98;100.00;101362.25;5225018;28;20385;-60
2022/01/02 05:57:21;;;;;;;8.57;5.93;;;;;;;10.01;100.00;101354.50;5225224;28;20481;-59
2022/01/02 05:59:51;;;;;;;4.20;4.00;;;;;;;10.01;100.00;101338.31;5226229;28;20017;-60
2022/01/02 06:02:21;;;;;;;6.88;4.35;;;;;;;10.02;100.00;101329.16;5225260;28;20013;-64
2022/01/02 06:04:52;;;;;;;5.22;4.75;;;;;;;10.00;100.00;101320.47;5224691;28;20110;-60
2022/01/02 06:07:22;;;;;;;12.82;5.68;;;;;;;10.02;100.00;101315.66;5225220;28;20029;-62
2022/01/02 06:09:53;;;;;;;4.82;4.45;;;;;;;10.04;100.00;101315.41;5224520;28;20021;-62
2022/01/02 06:12:23;;;;;;;4.82;4.47;;;;;;;10.03;100.00;101297.59;5225017;28;20025;-59
2022/01/02 06:14:54;;;;;;;6.38;5.38;;;;;;;10.01;100.00;101289.72;5224905;28;20102;-62
2022/01/02 06:17:24;;;;;;;3.90;3.70;;;;;;;10.02;100.00;101285.97;5224763;28;20397;-60
2022/01/02 06:19:54;;;;;;;5.43;3.88;;;;;;;10.00;100.00;101277.31;5224700;28;20124;-62
2022/01/02 06:22:25;;;;;;;4.38;4.05;;;;;;;10.00;100.00;101271.09;5224908;28;20051;-63
2022/01/02 06:24:55;;;;;;;4.45;4.05;;;;;;;9.96;100.00;101262.66;5207989;28;20025;-63
2022/01/02 06:27:26;;;;;;;8.07;4.32;;;;;;;9.98;100.00;101263.22;5224667;28;20051;-64
2022/01/02 06:29:56;;;;;;;4.15;3.85;;;;;;;10.00;100.00;101271.91;5225828;28;20025;-63
2022/01/02 06:32:27;;;;;;;7.57;3.45;;;;;;;10.00;100.00;101266.50;5224565;28;20021;-61
2022/01/02 06:34:57;;;;;;;5.38;5.07;;;;;;;9.89;100.00;101240.41;5224480;28;20064;-60
2022/01/02 06:37:28;;;;;;;5.32;4.82;;;;;;;10.02;100.00;101258.19;5224625;28;20492;-65
2022/01/02 06:39:58;;;;;;;6.00;4.35;;;;;;;9.96;100.00;101249.16;5224575;28;20500;-62
2022/01/02 06:42:29;;;;;;;4.40;4.10;;;;;;;10.02;100.00;101253.59;5224559;28;20024;-61
2022/01/02 06:44:59;;;;;;;11.38;4.57;;;;;;;10.04;100.00;101238.00;5224406;28;20056;-61
2022/01/02 06:47:33;;;;;;;4.10;3.85;;;;;;;10.07;100.00;101237.50;5224447;28;20297;-60
2022/01/02 06:50:04;;;;;;;5.28;3.83;;;;;;;10.06;100.00;101254.75;5224175;28;20032;-63
2022/01/02 06:52:35;;;;;;;4.13;3.83;;;;;;;10.11;100.00;101272.88;5224458;28;20389;-66
2022/01/02 06:55:06;;;;;;;3.72;3.47;;;;;;;10.09;100.00;101262.38;5224228;28;20021;-62
2022/01/02 06:57:37;;;;;;;5.38;3.33;;;;;;;10.10;100.00;101265.88;5224685;28;20024;-61
2022/01/02 07:00:08;;;;;;;3.53;2.95;;;;;;;10.02;100.00;101218.53;5224449;28;20440;-65
2022/01/02 07:02:38;;;;;;;2.92;2.83;;;;;;;9.98;100.00;101209.28;5224247;28;20029;-62
2022/01/02 07:05:09;;;;;;;6.68;3.55;;;;;;;10.08;100.00;101231.03;5224223;28;20053;-60
2022/01/02 07:07:44;;;;;;;3.55;3.35;;;;;;;10.11;100.00;101240.50;5224364;28;20032;-63
2022/01/02 07:10:16;;;;;;;3.28;3.13;;;;;;;10.16;100.00;101246.81;5224387;28;20028;-61
2022/01/02 07:12:47;;;;;;;3.50;3.22;;;;;;;10.14;100.00;101253.53;5224319;28;20032;-62
2022/01/02 07:15:17;;;;;;;7.07;3.67;;;;;;;10.11;100.00;101245.91;5223894;28;20025;-61
2022/01/02 07:17:48;;;;;;;5.13;3.90;;;;;;;10.12;100.00;101248.38;5224443;28;20025;-62
2022/01/02 07:20:18;;;;;;;3.47;3.28;;;;;;;10.11;100.00;101235.94;5224577;28;20025;-61
2022/01/02 07:22:48;;;;;;;5.43;3.95;;;;;;;10.10;100.00;101228.09;5226216;28;20021;-66
2022/01/02 07:25:19;;;;;;;3.47;3.28;;;;;;;10.09;100.00;101238.09;5227741;28;20028;-61
2022/01/02 07:27:49;;;;;;;3.97;3.63;;;;;;;10.02;100.00;101232.00;5227749;28;20121;-61
2022/01/02 07:30:20;;;;;;;3.85;3.53;;;;;;;10.03;100.00;101240.94;5211107;28;20032;-63
2022/01/02 07:32:51;;;;;;;3.92;3.65;;;;;;;9.97;100.00;101236.50;5227810;28;20036;-62
2022/01/02 07:35:21;;;;;;;2.90;2.80;;;;;;;10.11;100.00;101265.63;5227560;28;20036;-63
2022/01/02 07:37:52;;;;;;;3.42;3.22;;;;;;;10.07;100.00;101256.41;5226545;28;20556;-61
2022/01/02 07:40:22;;;;;;;16.58;5.20;;;;;;;10.03;100.00;101244.44;5226940;28;20516;-60
2022/01/02 07:42:53;;;;;;;4.90;3.67;;;;;;;9.97;100.00;101229.22;5227735;28;20024;-62
2022/01/02 07:45:24;;;;;;;4.32;3.15;;;;;;;9.98;100.00;101240.84;5227554;28;20024;-59
2022/01/02 07:47:54;;;;;;;5.53;4.15;;;;;;;9.80;100.00;101226.50;5227157;28;20504;-62
2022/01/02 07:50:25;;;;;;;4.47;4.10;;;;;;;9.90;100.00;101250.13;5227056;28;20037;-59
2022/01/02 07:52:55;;;;;;;3.35;3.10;;;;;;;9.78;100.00;101247.50;5227711;28;20045;-59
2022/01/02 07:55:26;;;;;;;4.40;4.07;;;;;;;9.77;100.00;101264.75;5226978;28;20025;-61
2022/01/02 07:57:56;;;;;;;4.80;4.40;;;;;;;9.79;100.00;101280.69;5227367;28;20501;-60
2022/01/02 08:00:27;;;;;;;4.03;3.67;;;;;;;9.84;100.00;101288.84;5226594;28;20393;-61
2022/01/02 08:02:57;;;;;;;3.03;2.92;;;;;;;9.98;100.00;101284.00;5227383;28;20521;-60
2022/01/02 08:05:28;;;;;;;3.22;2.97;;;;;;;10.13;100.00;101295.06;5226995;28;20036;-60
2022/01/02 08:07:58;;;;;;;3.20;3.10;;;;;;;10.23;100.00;101305.25;5227285;28;20489;-59
2022/01/02 08:10:29;;;;;;;5.00;4.30;;;;;;;10.46;100.00;101287.03;5227233;28;20521;-62
2022/01/02 08:13:00;;;;;;;4.15;3.92;;;;;;;10.60;100.00;101281.31;5226901;28;20493;-62
2022/01/02 08:15:32;;;;;;;3.03;2.90;;;;;;;10.63;100.00;101287.06;5227158;28;20024;-60
2022/01/02 08:18:02;;;;;;;3.80;3.42;;;;;;;10.83;100.00;101297.34;5226667;28;20036;-65
2022/01/02 08:20:33;;;;;;;3.90;3.35;;;;;;;10.93;100.00;101283.19;5226676;28;20021;-62
2022/01/02 08:23:03;;;;;;;4.30;3.90;;;;;;;11.00;100.00;101290.03;5226842;28;20058;-62
2022/01/02 08:25:34;;;;;;;4.53;4.22;;;;;;;11.07;100.00;101281.75;5226561;28;20024;-62
2022/01/02 08:28:05;;;;;;;5.10;3.90;;;;;;;11.08;100.00;101284.22;5226836;28;20040;-62
2022/01/02 08:30:35;;;;;;;3.97;3.63;;;;;;;11.18;100.00;101299.78;5226614;28;20020;-63
2022/01/02 08:33:05;;;;;;;4.28;3.95;;;;;;;11.20;100.00;101292.22;5226273;28;20208;-63
2022/01/02 08:35:37;;;;;;;4.85;3.47;;;;;;;11.21;100.00;101288.47;5226325;28;20485;-63
2022/01/02 08:38:08;;;;;;;15.05;5.30;;;;;;;11.26;100.00;101280.38;5226531;28;20029;-63
2022/01/02 08:40:39;;;;;;;4.93;4.53;;;;;;;11.26;100.00;101302.03;5227726;28;20079;-63
2022/01/02 08:43:10;;;;;;;4.13;3.63;;;;;;;11.26;100.00;101291.22;5226514;28;20140;-61
2022/01/02 08:45:41;;;;;;;4.43;4.18;;;;;;;11.26;100.00;101293.91;5226296;28;20484;-62
2022/01/02 08:48:11;;;;;;;10.82;4.22;;;;;;;11.12;100.00;101265.63;5226314;28;20079;-63
2022/01/02 08:50:42;;;;;;;3.88;3.58;;;;;;;11.22;100.00;101295.50;5225977;28;20071;-62
2022/01/02 08:53:12;;;;;;;6.00;5.50;;;;;;;11.24;100.00;101287.97;5226168;28;20033;-61
2022/01/02 08:55:43;;;;;;;5.45;5.00;;;;;;;11.23;100.00;101290.91;5225989;28;20029;-63
2022/01/02 08:58:13;;;;;;;4.68;4.45;;;;;;;11.21;100.00;101293.06;5226269;28;20029;-60
2022/01/02 09:00:44;;;;;;;4.75;4.35;;;;;;;11.21;100.00;101287.66;5226152;28;20033;-62
2022/01/02 09:03:15;;;;;;;4.00;3.80;;;;;;;11.25;100.00;101291.47;5226000;28;20049;-62
2022/01/02 09:05:45;;;;;;;5.85;5.07;;;;;;;11.26;100.00;101285.81;5225822;28;20040;-59
2022/01/02 09:08:16;;;;;;;4.70;4.40;;;;;;;11.30;100.00;101291.53;5225829;28;20021;-60
2022/01/02 09:10:46;;;;;;;5.85;5.40;;;;;;;11.34;100.00;101287.25;5225852;28;20036;-62
2022/01/02 09:13:17;;;;;;;4.65;4.25;;;;;;;11.42;100.00;101293.06;5225345;28;20071;-62
2022/01/02 09:15:47;;;;;;;5.75;5.25;;;;;;;11.42;100.00;101298.47;5225691;28;20040;-60
2022/01/02 09:18:18;;;;;;;4.35;3.95;;;;;;;11.40;100.00;101297.09;5225869;28;20028;-62
2022/01/02 09:20:48;;;;;;;5.63;5.22;;;;;;;11.41;100.00;101310.34;5225821;28;20040;-60
2022/01/02 09:23:19;;;;;;;6.28;5.78;;;;;;;11.37;100.00;101306.50;5225756;28;20032;-61
2022/01/02 09:25:49;;;;;;;5.93;5.38;;;;;;;11.31;100.00;101293.97;5225555;28;20119;-61
2022/01/02 09:28:20;;;;;;;5.22;4.88;;;;;;;11.28;100.00;101299.88;5225731;28;20021;-61
2022/01/02 09:30:50;;;;;;;4.68;4.35;;;;;;;11.30;100.00;101297.75;5225471;28;20033;-60
2022/01/02 09:33:21;;;;;;;4.63;4.15;;;;;;;11.40;100.00;101306.00;5225262;28;20446;-63
2022/01/02 09:35:51;;;;;;;5.18;4.78;;;;;;;11.44;100.00;101303.63;5225628;28;20025;-62
2022/01/02 09:38:22;;;;;;;6.32;5.75;;;;;;;11.59;100.00;101324.63;5225210;28;20107;-62
2022/01/02 09:40:52;;;;;;;8.55;4.88;;;;;;;11.66;100.00;101323.38;5225213;28;20055;-61
2022/01/02 09:43:23;;;;;;;6.15;5.35;;;;;;;11.70;100.00;101318.28;5225034;28;20029;-61
2022/01/02 09:45:54;;;;;;;5.97;5.57;;;;;;;11.69;100.00;101303.13;5224813;28;20024;-60
2022/01/02 09:48:25;;;;;;;5.32;4.60;;;;;;;11.69;100.00;101306.66;5224983;28;20021;-63
2022/01/02 09:50:58;;;;;;;5.97;5.57;;;;;;;11.71;100.00;101309.09;5224961;28;20052;-60
2022/01/02 09:53:29;;;;;;;5.10;4.80;;;;;;;11.69;100.00;101330.19;5224895;28;20402;-63
2022/01/02 09:55:59;;;;;;;5.15;4.78;;;;;;;11.64;100.00;101316.59;5224934;28;20031;-61
2022/01/02 09:58:30;;;;;;;6.38;4.95;;;;;;;11.63;100.00;101312.25;5224840;28;20064;-61
2022/01/02 10:01:01;;;;;;;6.03;5.38;;;;;;;11.63;100.00;101312.25;5224687;28;20508;-62
2022/01/02 10:03:50;;;;;;;6.47;4.90;;;;;;;11.70;100.00;101305.56;5224626;28;20021;-63
2022/01/02 10:06:36;;;;;;;6.40;5.50;;;;;;;11.76;100.00;101311.88;5224855;28;20059;-60
2022/01/02 10:09:29;;;;;;;4.28;3.80;;;;;;;11.75;100.00;101302.94;5225939;28;20524;-61
2022/01/02 10:12:22;;;;;;;6.50;4.90;;;;;;;11.80;100.00;101337.38;5224525;28;20021;-63
2022/01/02 10:15:08;;;;;;;4.65;3.38;;;;;;;11.73;100.00;101328.59;5224617;28;20039;-61
2022/01/02 10:17:57;;;;;;;6.38;5.78;;;;;;;11.69;100.00;101332.88;5224439;28;20032;-63
2022/01/02 10:20:42;;;;;;;6.50;5.88;;;;;;;11.69;100.00;101333.69;5224887;28;20476;-60
2022/01/02 10:23:14;;;;;;;7.10;6.45;;;;;;;11.76;100.00;101330.81;5240493;28;20047;-62
2022/01/02 10:25:49;;;;;;;6.63;6.22;;;;;;;11.78;100.00;101328.69;5228503;28;20036;-63
2022/01/02 10:28:31;;;;;;;5.50;4.57;;;;;;;11.84;100.00;101323.06;5224630;28;20101;-62
2022/01/02 10:31:14;;;;;;;4.85;4.60;;;;;;;11.92;100.00;101315.59;5224227;28;20068;-62
2022/01/02 10:33:55;;;;;;;6.15;5.75;;;;;;;11.93;100.00;101307.22;5224501;28;20032;-60
2022/01/02 10:36:49;;;;;;;7.80;3.95;;;;;;;11.97;100.00;101311.06;5224380;28;20029;-61
2022/01/02 10:39:20;;;;;;;7.22;4.85;;;;;;;11.96;100.00;101320.25;5224799;28;20493;-62
2022/01/02 10:41:51;;;;;;;6.43;5.72;;;;;;;11.93;100.00;101309.09;5224490;28;20036;-62
2022/01/02 10:44:31;;;;;;;4.70;4.38;;;;;;;12.02;100.00;101308.41;5224618;28;20035;-62
2022/01/02 10:47:17;;;;;;;21.40;5.30;;;;;;;12.08;100.00;101309.28;5224493;28;20024;-61
2022/01/02 10:49:54;;;;;;;4.93;4.53;;;;;;;12.16;100.00;101298.78;5224308;28;20025;-61
2022/01/02 10:52:26;;;;;;;4.00;3.60;;;;;;;12.23;100.00;101306.72;5224363;28;20108;-61
2022/01/02 10:54:59;;;;;;;4.55;4.25;;;;;;;12.15;100.00;101310.69;5224784;28;20025;-62
2022/01/02 10:57:31;;;;;;;4.55;4.25;;;;;;;12.23;100.00;101303.19;5227180;28;20028;-62
2022/01/02 11:00:03;;;;;;;7.22;5.60;;;;;;;12.29;100.00;101304.88;5228163;28;20082;-62
2022/01/02 11:02:33;;;;;;;7.30;5.32;;;;;;;12.25;100.00;101301.03;5228140;28;20021;-61
2022/01/02 11:05:10;;;;;;;5.95;5.45;;;;;;;12.27;100.00;101307.84;5239023;28;20135;-62
2022/01/02 11:07:42;;;;;;;4.63;4.32;;;;;;;12.28;100.00;101298.66;5249011;28;20032;-63
2022/01/02 11:10:15;;;;;;;5.90;5.40;;;;;;;12.36;100.00;101295.47;5248560;28;20056;-61
2022/01/02 11:12:47;;;;;;;12.52;5.82;;;;;;;12.42;100.00;101305.25;5248542;28;20462;-63
2022/01/02 11:15:23;;;;;;;5.55;4.70;;;;;;;12.48;100.00;101298.00;5248575;28;20025;-63
2022/01/02 11:17:54;;;;;;;6.35;5.57;;;;;;;12.59;100.00;101302.44;5248837;28;20454;-64
2022/01/02 11:20:28;;;;;;;7.25;4.85;;;;;;;12.65;100.00;101311.44;5248456;28;20028;-64
2022/01/02 11:22:58;;;;;;;6.28;5.78;;;;;;;12.66;100.00;101310.38;5250034;28;20024;-63
2022/01/02 11:25:54;;;;;;;5.43;4.75;;;;;;;12.60;100.00;101301.38;5248491;28;20020;-63
2022/01/02 11:28:38;;;;;;;4.80;4.05;;;;;;;12.55;100.00;101298.63;5248357;28;20020;-64
2022/01/02 11:31:09;;;;;;;6.28;4.45;;;;;;;12.57;100.00;101303.78;5247931;28;20037;-62
2022/01/02 11:33:42;;;;;;;4.63;4.32;;;;;;;12.60;100.00;101295.94;5248023;28;20028;-64
2022/01/02 11:36:31;;;;;;;4.93;4.40;;;;;;;12.58;100.00;101292.69;5248365;28;20021;-64
2022/01/02 11:39:07;;;;;;;5.43;4.43;;;;;;;12.61;100.00;101286.75;5248249;28;20052;-64
2022/01/02 11:41:46;;;;;;;6.18;5.22;;;;;;;12.56;100.00;101292.13;5248561;28;20131;-65
2022/01/02 11:44:21;;;;;;;5.65;5.10;;;;;;;12.60;100.00;101289.72;5250504;28;20044;-64
2022/01/02 11:46:52;;;;;;;5.68;5.20;;;;;;;12.81;100.00;101278.75;5249480;28;20066;-64
2022/01/02 11:49:36;;;;;;;12.70;4.93;;;;;;;12.93;100.00;101278.56;5250167;28;20123;-65
2022/01/02 11:52:26;;;;;;;3.85;3.58;;;;;;;12.96;100.00;101271.81;5250132;28;20024;-65